Time;durP1;ratioP1;P1;durP2;ratioP2;P2;SDS_P1;SDS_P2;PMS_P1;PMS_P2;Temp;Humidity;BMP_temperature;BMP_pressure;BME280_temperature;BME280_humidity;BME280_pressure;Samples;Min_cycle;Max_cycle;Signal;HPM_P1;HPM_P2
2023/09/10 00:12:19;;;;;;;;;;;;;;;17.97;89.28;100797.59;672060;1264;126593;-80
2023/09/10 00:27:22;;;;;;;;;;;;;;;17.77;89.95;100793.77;674536;1261;127313;-79
2023/09/10 00:42:26;;;;;;;;;;;;;;;17.66;90.24;100789.86;675569;1264;126252;-77
2023/09/10 00:57:29;;;;;;;;;;;;;;;17.59;89.98;100786.32;671960;1262;126971;-80
2023/09/10 01:12:51;;;;;;;;;;;;;;;17.42;90.87;100781.84;673713;1263;125486;-80
2023/09/10 01:27:54;;;;;;;;;;;;;;;17.27;90.97;100780.84;672872;1261;126679;-79
2023/09/10 01:54:52;;;;;;;;;;;;;;;17.10;90.70;100779.08;651923;1298;544961;-78
2023/09/10 02:09:58;;;;;;;;;;;;;;;16.86;91.43;100776.78;668729;1269;125540;-79
2023/09/10 02:25:03;;;;;;;;;;;;;;;16.69;92.11;100773.97;669658;1283;124618;-79
2023/09/10 02:40:07;;;;;;;;;;;;;;;16.59;92.12;100764.38;674712;1284;126444;-78
2023/09/10 02:55:11;;;;;;;;;;;;;;;16.50;92.41;100763.44;671330;1269;125885;-78
2023/09/10 03:10:14;;;;;;;;;;;;;;;16.38;92.93;100758.84;671362;1260;125890;-77
2023/09/10 03:25:17;;;;;;;;;;;;;;;16.28;93.07;100754.95;672693;1262;126464;-78
2023/09/10 03:40:22;;;;;;;;;;;;;;;16.15;94.17;100744.45;672755;1264;125406;-79
2023/09/10 03:55:25;;;;;;;;;;;;;;;16.02;94.21;100739.11;674015;1262;125201;-78
2023/09/10 04:10:29;;;;;;;;;;;;;;;16.07;93.97;100738.00;673830;1263;125043;-79
2023/09/10 04:25:32;;;;;;;;;;;;;;;16.03;93.46;100732.13;673458;1259;126394;-78
2023/09/10 04:40:36;;;;;;;;;;;;;;;15.87;94.81;100730.24;673590;1262;126887;-79
2023/09/10 04:55:39;;;;;;;;;;;;;;;16.02;95.28;100737.02;673646;1263;126790;-81
2023/09/10 05:10:47;;;;;;;;;;;;;;;16.28;95.00;100740.79;673407;1264;125926;-78
2023/09/10 05:25:51;;;;;;;;;;;;;;;16.74;94.95;100745.85;673790;1263;125739;-77
2023/09/10 05:41:00;;;;;;;;;;;;;;;17.18;95.22;100750.31;673373;1271;125989;-79
2023/09/10 05:56:04;;;;;;;;;;;;;;;17.99;95.35;100746.42;672762;1263;125977;-81
2023/09/10 06:11:08;;;;;;;;;;;;;;;22.92;90.72;100759.92;671276;1273;125656;-78
2023/09/10 06:26:13;;;;;;;;;;;;;;;27.34;78.40;100756.38;675309;1258;126231;-80
2023/09/10 06:41:17;;;;;;;;;;;;;;;29.31;67.13;100756.41;675307;1260;126110;-79
2023/09/10 06:56:21;;;;;;;;;;;;;;;30.39;64.44;100749.30;675163;1261;126001;-79
2023/09/10 07:11:24;;;;;;;;;;;;;;;31.42;61.69;100755.77;673944;1260;127360;-78
2023/09/10 07:26:27;;;;;;;;;;;;;;;31.91;59.73;100755.36;676951;1263;126469;-78
2023/09/10 07:41:32;;;;;;;;;;;;;;;31.88;58.43;100746.20;674823;1260;127181;-78
2023/09/10 07:56:35;;;;;;;;;;;;;;;32.40;58.25;100730.27;677460;1260;124382;-77
2023/09/10 08:11:38;;;;;;;;;;;;;;;32.45;56.78;100722.20;672126;1261;125490;-76
2023/09/10 08:26:42;;;;;;;;;;;;;;;32.08;55.60;100716.45;668444;1266;124613;-77
2023/09/10 08:41:51;;;;;;;;;;;;;;;31.74;52.99;100716.58;669070;1258;124704;-77
2023/09/10 08:56:55;;;;;;;;;;;;;;;32.17;53.27;100723.11;670610;1260;124990;-77
2023/09/10 09:12:00;;;;;;;;;;;;;;;32.57;52.94;100719.23;670613;1260;124756;-77
2023/09/10 09:27:05;;;;;;;;;;;;;;;32.25;53.19;100710.30;669468;1257;124585;-77
2023/09/10 09:42:10;;;;;;;;;;;;;;;32.00;53.28;100709.00;669892;1260;125580;-76
2023/09/10 09:57:14;;;;;;;;;;;;;;;32.01;53.65;100691.05;669654;1261;125772;-77
2023/09/10 10:12:17;;;;;;;;;;;;;;;32.13;53.90;100680.42;669761;1257;125425;-76
2023/09/10 10:27:23;;;;;;;;;;;;;;;31.67;54.41;100660.34;669871;1272;124991;-76
2023/09/10 10:42:35;;;;;;;;;;;;;;;32.15;54.11;100655.20;669290;1260;126118;-75
2023/09/10 10:57:39;;;;;;;;;;;;;;;32.58;52.72;100647.70;668776;1264;124825;-76
2023/09/10 11:13:02;;;;;;;;;;;;;;;32.61;51.43;100639.94;669154;1262;126014;-76
2023/09/10 11:28:25;;;;;;;;;;;;;;;32.05;52.09;100629.80;668655;1264;125959;-77
2023/09/10 11:43:31;;;;;;;;;;;;;;;32.09;51.50;100625.96;669377;1260;124580;-78
2023/09/10 11:58:34;;;;;;;;;;;;;;;32.54;50.79;100615.89;669497;1256;125711;-76
2023/09/10 12:13:38;;;;;;;;;;;;;;;32.59;48.46;100608.08;669707;1257;124670;-77
2023/09/10 12:28:42;;;;;;;;;;;;;;;32.56;48.58;100606.77;669458;1260;125210;-76
2023/09/10 12:43:45;;;;;;;;;;;;;;;32.85;48.21;100599.10;669144;1256;124332;-76
2023/09/10 12:58:49;;;;;;;;;;;;;;;32.64;48.83;100591.36;669257;1261;124517;-76
2023/09/10 13:13:52;;;;;;;;;;;;;;;32.27;49.71;100583.69;673030;1261;123876;-77
2023/09/10 13:28:56;;;;;;;;;;;;;;;32.12;48.80;100580.28;669370;1257;125924;-77
2023/09/10 13:44:02;;;;;;;;;;;;;;;32.01;49.33;100560.14;669417;1263;125252;-77
2023/09/10 13:59:05;;;;;;;;;;;;;;;32.07;49.07;100552.23;668898;1262;150103;-76
2023/09/10 14:14:09;;;;;;;;;;;;;;;31.79;49.12;100538.67;669487;1263;124769;-77
2023/09/10 14:29:12;;;;;;;;;;;;;;;31.66;49.50;100536.39;670204;1260;125519;-77
2023/09/10 14:44:15;;;;;;;;;;;;;;;31.82;49.66;100528.05;670679;1260;125854;-77
2023/09/10 14:59:19;;;;;;;;;;;;;;;31.55;50.17;100520.48;670651;1260;125037;-78
2023/09/10 15:14:23;;;;;;;;;;;;;;;31.69;50.35;100511.95;670125;1275;124537;-79
2023/09/10 15:29:26;;;;;;;;;;;;;;;31.65;50.46;100511.43;674075;1263;125242;-79
2023/09/10 15:44:30;;;;;;;;;;;;;;;31.73;51.37;100506.84;668952;1263;124813;-79
2023/09/10 15:59:33;;;;;;;;;;;;;;;31.34;51.93;100505.02;668589;1262;124789;-78
2023/09/10 16:14:38;;;;;;;;;;;;;;;31.06;53.01;100488.38;672564;1263;125036;-77
2023/09/10 16:29:42;;;;;;;;;;;;;;;30.07;55.25;100482.00;671654;1263;124283;-78
2023/09/10 16:44:46;;;;;;;;;;;;;;;28.88;56.59;100467.06;672411;1262;125304;-78
2023/09/10 16:59:50;;;;;;;;;;;;;;;27.71;58.59;100467.27;679276;1262;126014;-77
2023/09/10 17:14:53;;;;;;;;;;;;;;;26.86;60.72;100473.04;670491;1273;124721;-77
2023/09/10 17:29:56;;;;;;;;;;;;;;;26.14;63.31;100468.15;673690;1260;125992;-77
2023/09/10 17:45:00;;;;;;;;;;;;;;;25.19;64.91;100474.50;668961;1262;125195;-75
2023/09/10 18:00:04;;;;;;;;;;;;;;;24.38;66.86;100473.31;670216;1262;124523;-76
2023/09/10 18:15:08;;;;;;;;;;;;;;;23.78;69.74;100480.53;669002;1262;124879;-76
2023/09/10 18:30:12;;;;;;;;;;;;;;;23.41;70.99;100482.45;679155;1262;124807;-77
2023/09/10 18:45:16;;;;;;;;;;;;;;;22.98;72.25;100481.36;674675;1262;125789;-76
2023/09/10 19:00:19;;;;;;;;;;;;;;;22.40;74.21;100475.23;670755;1263;126821;-77
2023/09/10 19:15:23;;;;;;;;;;;;;;;22.10;75.39;100472.79;673234;1263;126398;-77
2023/09/10 19:30:27;;;;;;;;;;;;;;;21.99;76.57;100480.33;671949;1263;125407;-77
2023/09/10 19:45:30;;;;;;;;;;;;;;;21.45;77.72;100474.95;672076;1262;126230;-78
2023/09/10 20:00:34;;;;;;;;;;;;;;;21.37;78.43;100474.57;671132;1271;126308;-78
2023/09/10 20:15:37;;;;;;;;;;;;;;;21.18;80.31;100475.83;674688;1260;125351;-78
2023/09/10 20:30:40;;;;;;;;;;;;;;;20.72;81.06;100461.64;675370;1263;125530;-78
2023/09/10 20:45:44;;;;;;;;;;;;;;;20.48;81.47;100461.47;672596;1263;126271;-76
2023/09/10 21:00:47;;;;;;;;;;;;;;;20.41;82.05;100461.63;671840;1267;125670;-77
2023/09/10 21:15:52;;;;;;;;;;;;;;;20.18;82.33;100461.11;674986;1262;126656;-77
2023/09/10 21:30:55;;;;;;;;;;;;;;;19.99;82.91;100469.77;674673;1269;126913;-77
2023/09/10 21:46:03;;;;;;;;;;;;;;;19.72;83.45;100464.16;670626;1263;125441;-78
2023/09/10 22:01:07;;;;;;;;;;;;;;;19.55;84.43;100455.77;673387;1262;125195;-78
2023/09/10 22:16:10;;;;;;;;;;;;;;;19.39;84.64;100455.05;668647;1271;131564;-77
2023/09/10 22:31:15;;;;;;;;;;;;;;;19.21;85.71;100445.64;671050;1270;125648;-78
2023/09/10 22:46:18;;;;;;;;;;;;;;;19.14;86.11;100433.02;678573;1262;126083;-78
2023/09/10 23:01:22;;;;;;;;;;;;;;;18.99;86.99;100432.42;679032;1264;126589;-78
2023/09/10 23:16:26;;;;;;;;;;;;;;;18.84;87.64;100440.72;672598;1264;126400;-80
2023/09/10 23:31:29;;;;;;;;;;;;;;;18.62;88.35;100438.75;674120;1261;126404;-79
2023/09/10 23:46:32;;;;;;;;;;;;;;;18.32;88.65;100420.48;680394;1263;125754;-79
